James L. Oberstar — WDC6154 — position and weather

sailwx.info

Track history (hours):
 
Tides and Currents Weather Stations Pressure Air Temp Water Temp Dewpoint Dewpoint Depression Visibility Wind Speed Wind Dir Waves Ship Positions

James L. Oberstar

Owner: Destin Trading Corporation, harahan, LA. More information available from US FCC via Universal Licensing System and Coast Guard Vessel Documentation Center.

Last reported at 2016-Jun-29 13:31 UTC. Time now 2016-Jun-30 03:18 UTC.
Position N 29°60' W 093°55'.

Length 26 m.

Type: Towing. MMSI: 367052120.

Date/timePositionNaut miles runAvg speedWind from/ knotsBaromVisibWave heightAir tempDewpointWater temp
2016-Jun-29 13:31N 29°60' W 093°55'0 0.0
2016-Jun-29 12:33N 29°60' W 093°55'0 0.0
2016-Jun-29 11:32N 29°60' W 093°55'0 0.0
2016-Jun-29 10:33N 29°60' W 093°55'0 0.0
2016-Jun-29 09:33N 29°60' W 093°55'0 0.0
2016-Jun-29 08:33N 29°60' W 093°55'0 0.0
2016-Jun-29 07:33N 29°60' W 093°55'0 0.0
2016-Jun-29 06:33N 29°60' W 093°55'0 0.0
2016-Jun-29 05:33N 29°60' W 093°55'0 0.0
2016-Jun-29 04:33N 29°60' W 093°55'0 0.0
2016-Jun-29 03:28N 29°60' W 093°55'0 0.0
2016-Jun-29 02:33N 29°60' W 093°55'0 0.0
2016-Jun-29 01:33N 29°60' W 093°55'0 0.0
2016-Jun-29 00:08N 29°60' W 093°55'4 0.4
2016-Jun-28 14:33N 29°58' W 093°51'0 0.2
2016-Jun-28 13:33N 29°58' W 093°51'4 3.5
2016-Jun-28 12:33N 29°60' W 093°55'0 0.0
2016-Jun-28 11:33N 29°60' W 093°55'0 0.0
2016-Jun-28 10:33N 29°60' W 093°55'0 0.0
2016-Jun-28 09:34N 29°60' W 093°55'0 0.0
2016-Jun-28 08:34N 29°60' W 093°55'0 0.0
2016-Jun-28 07:34N 29°60' W 093°55'0 0.0
2016-Jun-28 06:15N 29°60' W 093°55'0 0.0
2016-Jun-28 04:31N 29°60' W 093°55'0 0.0
2016-Jun-28 03:30N 29°60' W 093°55'0 0.0
2016-Jun-28 01:08N 29°60' W 093°55'0 0.0
2016-Jun-28 00:24N 29°60' W 093°55'0 0.0
2016-Jun-27 23:33N 29°60' W 093°55'0 0.0
2016-Jun-27 13:30N 29°60' W 093°55'0 0.0
2016-Jun-27 12:33N 29°60' W 093°55'0 0.0
2016-Jun-27 11:33N 29°60' W 093°55'0 0.0
2016-Jun-27 10:33N 29°60' W 093°55'0 0.0
2016-Jun-27 09:30N 29°60' W 093°55'0 0.0
2016-Jun-27 08:33N 29°60' W 093°55'0 0.0
2016-Jun-27 07:34N 29°60' W 093°55'0 0.0
2016-Jun-27 06:33N 29°60' W 093°55'0 0.0
2016-Jun-27 05:31N 29°60' W 093°55'0 0.0
2016-Jun-27 04:28N 29°60' W 093°55'0 0.0
2016-Jun-27 03:16N 29°60' W 093°55'2 0.2
2016-Jun-26 19:21N 29°59' W 093°53'0 0.1
2016-Jun-26 14:30N 29°59' W 093°53'2 1.8
2016-Jun-26 13:21N 29°60' W 093°55'0 0.0
2016-Jun-26 12:25N 29°60' W 093°55'0 0.0
2016-Jun-26 10:29N 29°60' W 093°55'0 0.0
2016-Jun-26 09:28N 29°60' W 093°55'0 0.0
2016-Jun-26 08:33N 29°60' W 093°55'0 0.0
2016-Jun-26 07:33N 29°60' W 093°55'0 0.0
2016-Jun-26 06:33N 29°60' W 093°55'0 0.0
2016-Jun-26 05:31N 29°60' W 093°55'0 0.0
2016-Jun-26 04:23N 29°60' W 093°55'0 0.0
2016-Jun-26 03:32N 29°60' W 093°55'0 0.0
2016-Jun-26 02:30N 29°60' W 093°55'0 0.0
2016-Jun-25 12:33N 29°60' W 093°55'0 0.0
2016-Jun-25 09:11N 29°60' W 093°55'0 0.0
2016-Jun-25 08:31N 29°60' W 093°55'0 0.0
2016-Jun-25 07:31N 29°60' W 093°55'0 0.0
2016-Jun-25 06:33N 29°60' W 093°55'0 0.0
2016-Jun-25 04:30N 29°60' W 093°55'0 0.0
2016-Jun-25 03:33N 29°60' W 093°55'0 0.0
2016-Jun-25 02:25N 29°60' W 093°55'0 0.0
2016-Jun-24 13:06N 29°60' W 093°55'0 0.0
2016-Jun-24 12:28N 29°60' W 093°55'0 0.0
2016-Jun-24 11:31N 29°60' W 093°55'0 0.0
2016-Jun-24 10:33N 29°60' W 093°55'0 0.0
2016-Jun-24 09:30N 29°60' W 093°55'0 0.0
2016-Jun-24 08:25N 29°60' W 093°55'0 0.0
2016-Jun-24 04:23N 29°60' W 093°55'0 0.0
2016-Jun-24 03:27N 29°60' W 093°55'3 0.3
2016-Jun-23 17:33N 29°58' W 093°52'3 0.6
2016-Jun-23 12:25N 29°60' W 093°55'0 0.0
2016-Jun-23 08:12N 29°60' W 093°55'0 0.0
2016-Jun-23 04:15N 29°60' W 093°55'0 0.0
2016-Jun-23 03:31N 29°60' W 093°55'0 0.0
2016-Jun-23 02:28N 29°60' W 093°55'0 0.0
2016-Jun-22 13:20N 29°60' W 093°55'0 0.0
2016-Jun-22 12:33N 29°60' W 093°55'0 0.0
2016-Jun-22 11:33N 29°60' W 093°55'0 0.0
2016-Jun-22 10:22N 29°60' W 093°55'0 0.0
2016-Jun-22 09:32N 29°60' W 093°55'0 0.0
2016-Jun-22 06:24N 29°60' W 093°55'0 0.0
2016-Jun-22 04:23N 29°60' W 093°55'4 0.3
2016-Jun-21 15:28N 29°58' W 093°51'0 0.1
2016-Jun-21 14:15N 29°58' W 093°51'4 4.8
2016-Jun-21 13:30N 29°60' W 093°55'0 0.0
2016-Jun-21 12:33N 29°60' W 093°55'0 0.0
2016-Jun-21 11:21N 29°60' W 093°55'0 0.0
2016-Jun-21 10:28N 29°60' W 093°55'0 0.0
2016-Jun-21 09:26N 29°60' W 093°55'0 0.0
2016-Jun-21 08:32N 29°60' W 093°55'0 0.0
2016-Jun-21 07:33N 29°60' W 093°55'0 0.0
2016-Jun-21 05:33N 29°60' W 093°55'0 0.0
2016-Jun-21 04:32N 29°60' W 093°55'0 0.0
2016-Jun-21 03:33N 29°60' W 093°55'0 0.0
2016-Jun-21 02:24N 29°60' W 093°55'0 0.0
2016-Jun-21 01:31N 29°60' W 093°55'0 0.0
2016-Jun-20 22:31N 29°60' W 093°55'0 0.0
2016-Jun-20 21:19N 29°60' W 093°55'0 0.0
2016-Jun-20 20:29N 29°60' W 093°55'0 0.0
2016-Jun-20 18:17N 29°60' W 093°55'0 0.0
2016-Jun-20 17:33N 29°60' W 093°55'0 0.0
2016-Jun-20 13:28N 29°60' W 093°55'0 0.0
2016-Jun-20 12:33N 29°60' W 093°55'0 0.0
2016-Jun-20 11:33N 29°60' W 093°55'0 0.0
2016-Jun-20 10:33N 29°60' W 093°55'0 0.0
2016-Jun-20 09:33N 29°60' W 093°55'3 1.1
2016-Jun-20 06:33N 29°58' W 093°51'1 1.4
2016-Jun-20 05:33N 29°57' W 093°52'0 0.0
2016-Jun-20 04:05N 29°57' W 093°52'2 3.0
2016-Jun-20 03:32N 29°58' W 093°52'  
Track history (hours):
 
Tides and Currents Weather Stations Pressure Air Temp Water Temp Dewpoint Dewpoint Depression Visibility Wind Speed Wind Dir Waves Ship Positions

James L. Oberstar

Owner: Destin Trading Corporation, harahan, LA. More information available from US FCC via Universal Licensing System and Coast Guard Vessel Documentation Center.

Last reported at 2016-Jun-29 13:31 UTC. Time now 2016-Jun-30 03:18 UTC.
Position N 29°60' W 093°55'.

Length 26 m.

Type: Towing. MMSI: 367052120.

Date/timePositionNaut miles runAvg speedWind from/ knotsBaromVisibWave heightAir tempDewpointWater temp
2016-Jun-29 13:31N 29°60' W 093°55'0 0.0
2016-Jun-29 12:33N 29°60' W 093°55'0 0.0
2016-Jun-29 11:32N 29°60' W 093°55'0 0.0
2016-Jun-29 10:33N 29°60' W 093°55'0 0.0
2016-Jun-29 09:33N 29°60' W 093°55'0 0.0
2016-Jun-29 08:33N 29°60' W 093°55'0 0.0
2016-Jun-29 07:33N 29°60' W 093°55'0 0.0
2016-Jun-29 06:33N 29°60' W 093°55'0 0.0
2016-Jun-29 05:33N 29°60' W 093°55'0 0.0
2016-Jun-29 04:33N 29°60' W 093°55'0 0.0
2016-Jun-29 03:28N 29°60' W 093°55'0 0.0
2016-Jun-29 02:33N 29°60' W 093°55'0 0.0
2016-Jun-29 01:33N 29°60' W 093°55'0 0.0
2016-Jun-29 00:08N 29°60' W 093°55'4 0.4
2016-Jun-28 14:33N 29°58' W 093°51'0 0.2
2016-Jun-28 13:33N 29°58' W 093°51'4 3.5
2016-Jun-28 12:33N 29°60' W 093°55'0 0.0
2016-Jun-28 11:33N 29°60' W 093°55'0 0.0
2016-Jun-28 10:33N 29°60' W 093°55'0 0.0
2016-Jun-28 09:34N 29°60' W 093°55'0 0.0
2016-Jun-28 08:34N 29°60' W 093°55'0 0.0
2016-Jun-28 07:34N 29°60' W 093°55'0 0.0
2016-Jun-28 06:15N 29°60' W 093°55'0 0.0
2016-Jun-28 04:31N 29°60' W 093°55'0 0.0
2016-Jun-28 03:30N 29°60' W 093°55'0 0.0
2016-Jun-28 01:08N 29°60' W 093°55'0 0.0
2016-Jun-28 00:24N 29°60' W 093°55'0 0.0
2016-Jun-27 23:33N 29°60' W 093°55'0 0.0
2016-Jun-27 13:30N 29°60' W 093°55'0 0.0
2016-Jun-27 12:33N 29°60' W 093°55'0 0.0
2016-Jun-27 11:33N 29°60' W 093°55'0 0.0
2016-Jun-27 10:33N 29°60' W 093°55'0 0.0
2016-Jun-27 09:30N 29°60' W 093°55'0 0.0
2016-Jun-27 08:33N 29°60' W 093°55'0 0.0
2016-Jun-27 07:34N 29°60' W 093°55'0 0.0
2016-Jun-27 06:33N 29°60' W 093°55'0 0.0
2016-Jun-27 05:31N 29°60' W 093°55'0 0.0
2016-Jun-27 04:28N 29°60' W 093°55'0 0.0
2016-Jun-27 03:16N 29°60' W 093°55'2 0.2
2016-Jun-26 19:21N 29°59' W 093°53'0 0.1
2016-Jun-26 14:30N 29°59' W 093°53'2 1.8
2016-Jun-26 13:21N 29°60' W 093°55'0 0.0
2016-Jun-26 12:25N 29°60' W 093°55'0 0.0
2016-Jun-26 10:29N 29°60' W 093°55'0 0.0
2016-Jun-26 09:28N 29°60' W 093°55'0 0.0
2016-Jun-26 08:33N 29°60' W 093°55'0 0.0
2016-Jun-26 07:33N 29°60' W 093°55'0 0.0
2016-Jun-26 06:33N 29°60' W 093°55'0 0.0
2016-Jun-26 05:31N 29°60' W 093°55'0 0.0
2016-Jun-26 04:23N 29°60' W 093°55'0 0.0
2016-Jun-26 03:32N 29°60' W 093°55'0 0.0
2016-Jun-26 02:30N 29°60' W 093°55'0 0.0
2016-Jun-25 12:33N 29°60' W 093°55'0 0.0
2016-Jun-25 09:11N 29°60' W 093°55'0 0.0
2016-Jun-25 08:31N 29°60' W 093°55'0 0.0
2016-Jun-25 07:31N 29°60' W 093°55'0 0.0
2016-Jun-25 06:33N 29°60' W 093°55'0 0.0
2016-Jun-25 04:30N 29°60' W 093°55'0 0.0
2016-Jun-25 03:33N 29°60' W 093°55'0 0.0
2016-Jun-25 02:25N 29°60' W 093°55'0 0.0
2016-Jun-24 13:06N 29°60' W 093°55'0 0.0
2016-Jun-24 12:28N 29°60' W 093°55'0 0.0
2016-Jun-24 11:31N 29°60' W 093°55'0 0.0
2016-Jun-24 10:33N 29°60' W 093°55'0 0.0
2016-Jun-24 09:30N 29°60' W 093°55'0 0.0
2016-Jun-24 08:25N 29°60' W 093°55'0 0.0
2016-Jun-24 04:23N 29°60' W 093°55'0 0.0
2016-Jun-24 03:27N 29°60' W 093°55'3 0.3
2016-Jun-23 17:33N 29°58' W 093°52'3 0.6
2016-Jun-23 12:25N 29°60' W 093°55'0 0.0
2016-Jun-23 08:12N 29°60' W 093°55'0 0.0
2016-Jun-23 04:15N 29°60' W 093°55'0 0.0
2016-Jun-23 03:31N 29°60' W 093°55'0 0.0
2016-Jun-23 02:28N 29°60' W 093°55'0 0.0
2016-Jun-22 13:20N 29°60' W 093°55'0 0.0
2016-Jun-22 12:33N 29°60' W 093°55'0 0.0
2016-Jun-22 11:33N 29°60' W 093°55'0 0.0
2016-Jun-22 10:22N 29°60' W 093°55'0 0.0
2016-Jun-22 09:32N 29°60' W 093°55'0 0.0
2016-Jun-22 06:24N 29°60' W 093°55'0 0.0
2016-Jun-22 04:23N 29°60' W 093°55'4 0.3
2016-Jun-21 15:28N 29°58' W 093°51'0 0.1
2016-Jun-21 14:15N 29°58' W 093°51'4 4.8
2016-Jun-21 13:30N 29°60' W 093°55'0 0.0
2016-Jun-21 12:33N 29°60' W 093°55'0 0.0
2016-Jun-21 11:21N 29°60' W 093°55'0 0.0
2016-Jun-21 10:28N 29°60' W 093°55'0 0.0
2016-Jun-21 09:26N 29°60' W 093°55'0 0.0
2016-Jun-21 08:32N 29°60' W 093°55'0 0.0
2016-Jun-21 07:33N 29°60' W 093°55'0 0.0
2016-Jun-21 05:33N 29°60' W 093°55'0 0.0
2016-Jun-21 04:32N 29°60' W 093°55'0 0.0
2016-Jun-21 03:33N 29°60' W 093°55'0 0.0
2016-Jun-21 02:24N 29°60' W 093°55'0 0.0
2016-Jun-21 01:31N 29°60' W 093°55'0 0.0
2016-Jun-20 22:31N 29°60' W 093°55'0 0.0
2016-Jun-20 21:19N 29°60' W 093°55'0 0.0
2016-Jun-20 20:29N 29°60' W 093°55'0 0.0
2016-Jun-20 18:17N 29°60' W 093°55'0 0.0
2016-Jun-20 17:33N 29°60' W 093°55'0 0.0
2016-Jun-20 13:28N 29°60' W 093°55'0 0.0
2016-Jun-20 12:33N 29°60' W 093°55'0 0.0
2016-Jun-20 11:33N 29°60' W 093°55'0 0.0
2016-Jun-20 10:33N 29°60' W 093°55'0 0.0
2016-Jun-20 09:33N 29°60' W 093°55'3 1.1
2016-Jun-20 06:33N 29°58' W 093°51'1 1.4
2016-Jun-20 05:33N 29°57' W 093°52'0 0.0
2016-Jun-20 04:05N 29°57' W 093°52'2 3.0
2016-Jun-20 03:32N 29°58' W 093°52'  

Dump ship's entire track history